createdAt,value
2022-12-19T00:02:13.597Z,-3.90
2022-12-19T00:05:01.493Z,-3.88
2022-12-19T00:07:50.686Z,-3.91
2022-12-19T00:10:40.295Z,-3.90
2022-12-19T00:13:29.068Z,-3.92
2022-12-19T00:16:21.258Z,-3.93
2022-12-19T00:19:10.895Z,-3.95
2022-12-19T00:21:58.596Z,-3.96
2022-12-19T00:24:46.618Z,-3.97
2022-12-19T00:27:37.661Z,-3.93
2022-12-19T00:30:25.823Z,-3.97
2022-12-19T00:33:13.895Z,-3.95
2022-12-19T00:36:02.872Z,-4.04
2022-12-19T00:38:52.215Z,-4.09
2022-12-19T00:41:42.588Z,-4.13
2022-12-19T00:44:32.249Z,-4.15
2022-12-19T00:47:19.952Z,-4.18
2022-12-19T00:50:08.716Z,-4.18
2022-12-19T00:52:56.827Z,-4.21
2022-12-19T00:55:44.777Z,-4.20
2022-12-19T00:58:35.479Z,-4.20
2022-12-19T01:01:27.424Z,-4.24
2022-12-19T01:04:28.304Z,-4.25
2022-12-19T01:07:16.823Z,-4.28
2022-12-19T01:10:05.937Z,-4.24
2022-12-19T01:12:53.183Z,-4.25
2022-12-19T01:15:41.985Z,-4.23
2022-12-19T01:18:31.238Z,-4.20
2022-12-19T01:21:19.133Z,-4.19
2022-12-19T01:24:07.807Z,-4.17
2022-12-19T01:26:55.601Z,-4.18
2022-12-19T01:29:52.736Z,-4.15
2022-12-19T01:32:40.952Z,-4.14
2022-12-19T01:35:30.617Z,-4.13
2022-12-19T01:38:20.809Z,-4.09
2022-12-19T01:41:08.672Z,-4.09
2022-12-19T01:43:59.424Z,-4.08
2022-12-19T01:46:49.836Z,-4.08
2022-12-19T01:49:38.357Z,-4.08
2022-12-19T01:52:27.615Z,-4.07
2022-12-19T01:55:16.010Z,-4.06
2022-12-19T01:58:04.127Z,-4.07
2022-12-19T02:00:52.277Z,-4.08
2022-12-19T02:03:41.515Z,-4.07
2022-12-19T02:06:30.052Z,-4.09
2022-12-19T02:09:20.077Z,-4.07
2022-12-19T02:12:08.160Z,-4.08
2022-12-19T02:15:03.166Z,-4.08
2022-12-19T02:18:10.132Z,-4.08
2022-12-19T02:21:27.955Z,-4.05
2022-12-19T02:25:02.734Z,-4.03
2022-12-19T02:28:13.506Z,-4.01
2022-12-19T02:31:17.418Z,-4.00
2022-12-19T02:34:18.850Z,-4.00
2022-12-19T02:37:10.021Z,-3.98
2022-12-19T02:40:04.373Z,-3.95
2022-12-19T02:42:58.169Z,-3.93
2022-12-19T02:45:48.777Z,-3.92
2022-12-19T02:48:38.287Z,-3.90
2022-12-19T02:51:26.102Z,-3.87
2022-12-19T02:54:14.618Z,-3.87
2022-12-19T02:57:12.693Z,-3.90
2022-12-19T03:00:07.469Z,-3.87
2022-12-19T03:03:04.572Z,-3.87
2022-12-19T03:06:03.382Z,-3.85
2022-12-19T03:09:02.022Z,-3.84
2022-12-19T03:11:54.295Z,-3.77
2022-12-19T03:14:43.414Z,-3.82
2022-12-19T03:17:36.272Z,-3.79
2022-12-19T03:20:33.358Z,-3.78
2022-12-19T03:23:22.808Z,-3.74
2022-12-19T03:26:15.482Z,-3.80
2022-12-19T03:29:10.350Z,-3.75
2022-12-19T03:32:02.184Z,-3.71
2022-12-19T03:34:53.351Z,-3.69
2022-12-19T03:37:44.393Z,-3.68
2022-12-19T03:40:38.476Z,-3.63
2022-12-19T03:43:26.950Z,-3.64
2022-12-19T03:46:19.938Z,-3.63
2022-12-19T03:49:08.152Z,-3.59
2022-12-19T03:52:02.860Z,-3.59
2022-12-19T03:54:55.822Z,-3.57
2022-12-19T03:57:52.539Z,-3.55
2022-12-19T04:00:47.275Z,-3.50
2022-12-19T04:03:35.099Z,-3.50
2022-12-19T04:06:23.699Z,-3.47
2022-12-19T04:09:14.082Z,-3.47
2022-12-19T04:12:06.984Z,-3.55
2022-12-19T04:14:56.549Z,-3.58
2022-12-19T04:17:49.363Z,-3.56
2022-12-19T04:20:40.272Z,-3.52
2022-12-19T04:23:33.344Z,-3.49
2022-12-19T04:26:22.460Z,-3.47
2022-12-19T04:29:12.776Z,-3.46
2022-12-19T04:32:03.025Z,-3.43
2022-12-19T04:34:50.928Z,-3.39
2022-12-19T04:37:39.444Z,-3.35
2022-12-19T04:40:27.187Z,-3.33
2022-12-19T04:43:15.134Z,-3.30
2022-12-19T04:46:03.242Z,-3.29
2022-12-19T04:48:52.619Z,-3.28
2022-12-19T04:51:40.705Z,-3.26
2022-12-19T04:54:28.757Z,-3.24
2022-12-19T04:57:16.478Z,-3.20
2022-12-19T05:00:07.110Z,-3.18
2022-12-19T05:02:55.358Z,-3.20
2022-12-19T05:05:44.950Z,-3.18
2022-12-19T05:08:33.108Z,-3.17
2022-12-19T05:11:21.270Z,-3.14
2022-12-19T05:14:09.144Z,-3.14
2022-12-19T05:17:01.614Z,-3.14
2022-12-19T05:19:50.253Z,-3.11
2022-12-19T05:22:39.714Z,-3.12
2022-12-19T05:25:27.475Z,-3.11
2022-12-19T05:28:16.045Z,-3.09
2022-12-19T05:31:09.096Z,-3.10
2022-12-19T05:33:58.535Z,-3.05
2022-12-19T05:36:46.609Z,-3.02
2022-12-19T05:39:38.563Z,-3.02
2022-12-19T05:42:27.426Z,-2.99
2022-12-19T05:45:15.560Z,-3.01
2022-12-19T05:48:03.497Z,-2.99
2022-12-19T05:50:51.678Z,-2.99
2022-12-19T05:53:40.626Z,-2.97
2022-12-19T05:56:29.950Z,-2.95
2022-12-19T05:59:17.630Z,-2.94
2022-12-19T06:02:05.990Z,-2.92
2022-12-19T06:04:54.435Z,-2.91
2022-12-19T06:07:42.612Z,-2.92
2022-12-19T06:10:30.793Z,-2.90
2022-12-19T06:13:24.937Z,-2.90
2022-12-19T06:16:15.352Z,-2.90
2022-12-19T06:19:02.967Z,-2.90
2022-12-19T06:21:51.250Z,-2.88
2022-12-19T06:24:39.044Z,-2.87
2022-12-19T06:27:29.368Z,-2.83
2022-12-19T06:30:18.859Z,-2.83
2022-12-19T06:33:07.051Z,-2.82
2022-12-19T06:36:02.763Z,-2.81
2022-12-19T06:38:51.220Z,-2.79
2022-12-19T06:41:56.521Z,-2.75
2022-12-19T06:44:44.518Z,-2.69
2022-12-19T06:47:33.792Z,-2.63
2022-12-19T06:50:23.787Z,-2.59
2022-12-19T06:53:11.889Z,-2.59
2022-12-19T06:56:00.772Z,-2.60
2022-12-19T06:58:48.549Z,-2.63
2022-12-19T07:01:46.868Z,-2.59
2022-12-19T07:04:40.552Z,-2.60
2022-12-19T07:07:28.653Z,-2.60
2022-12-19T07:10:16.757Z,-2.60
2022-12-19T07:13:05.355Z,-2.54
2022-12-19T07:15:53.829Z,-2.54
2022-12-19T07:18:42.448Z,-2.55
2022-12-19T07:21:31.827Z,-2.53
2022-12-19T07:24:19.622Z,-2.51
2022-12-19T07:27:10.738Z,-2.47
2022-12-19T07:29:58.662Z,-2.43
2022-12-19T07:32:46.723Z,-2.44
2022-12-19T07:35:34.694Z,-2.37
2022-12-19T07:38:24.058Z,-2.35
2022-12-19T07:41:12.112Z,-2.30
2022-12-19T07:44:00.293Z,-2.25
2022-12-19T07:46:48.021Z,-2.21
2022-12-19T07:49:36.070Z,-2.18
2022-12-19T07:52:24.080Z,-2.18
2022-12-19T07:55:13.685Z,-2.21
2022-12-19T07:58:01.310Z,-2.19
2022-12-19T08:00:56.299Z,-2.16
2022-12-19T08:03:44.745Z,-2.16
2022-12-19T08:06:36.367Z,-2.12
2022-12-19T08:09:27.817Z,-2.11
2022-12-19T08:12:17.903Z,-2.06
2022-12-19T08:15:08.001Z,-2.02
2022-12-19T08:17:56.720Z,-1.99
2022-12-19T08:20:47.396Z,-1.95
2022-12-19T08:23:35.265Z,-1.94
2022-12-19T08:26:25.887Z,-1.89
2022-12-19T08:29:15.091Z,-1.85
2022-12-19T08:32:02.817Z,-1.82
2022-12-19T08:34:51.253Z,-1.78
2022-12-19T08:37:39.804Z,-1.76
2022-12-19T08:40:27.935Z,-1.72
2022-12-19T08:43:15.744Z,-1.70
2022-12-19T08:46:05.440Z,-1.65
2022-12-19T08:48:53.559Z,-1.62
2022-12-19T08:51:44.467Z,-1.61
2022-12-19T08:54:32.313Z,-1.54
2022-12-19T08:57:20.486Z,-1.48
2022-12-19T09:00:10.565Z,-1.48
2022-12-19T09:03:01.253Z,-1.39
2022-12-19T09:06:04.392Z,-1.37
2022-12-19T09:09:00.014Z,-1.32
2022-12-19T09:11:50.249Z,-1.28
2022-12-19T09:14:38.818Z,-1.19
2022-12-19T09:17:26.807Z,-1.15
2022-12-19T09:20:22.796Z,-1.16
2022-12-19T09:23:11.377Z,-1.15
2022-12-19T09:26:02.969Z,-1.04
2022-12-19T09:28:51.528Z,-0.98
2022-12-19T09:31:39.781Z,-0.98
2022-12-19T09:34:36.707Z,-0.93
2022-12-19T09:37:27.956Z,-0.88
2022-12-19T09:40:18.662Z,-0.95
2022-12-19T09:43:20.384Z,-0.88
2022-12-19T09:46:17.638Z,-0.85
2022-12-19T09:49:13.337Z,-0.82
2022-12-19T09:52:05.313Z,-0.76
2022-12-19T09:54:58.649Z,-0.71
2022-12-19T09:57:52.963Z,-0.73
2022-12-19T10:00:44.612Z,-0.71
2022-12-19T10:03:39.693Z,-0.49
2022-12-19T10:07:22.189Z,-0.41
2022-12-19T10:12:33.056Z,-0.39
2022-12-19T10:13:07.670Z,-0.31
2022-12-19T10:16:08.661Z,-0.28
2022-12-19T10:18:58.013Z,-0.14
2022-12-19T10:22:17.611Z,-0.05
2022-12-19T10:25:22.401Z,-0.14
2022-12-19T10:28:32.815Z,-0.03
2022-12-19T10:31:28.908Z,0.10
2022-12-19T10:34:20.333Z,0.29
2022-12-19T10:37:27.031Z,0.40
2022-12-19T10:40:28.328Z,0.24
2022-12-19T10:43:33.045Z,0.36
2022-12-19T10:46:31.427Z,0.16
2022-12-19T10:49:21.990Z,0.09
2022-12-19T10:52:12.283Z,0.18
2022-12-19T10:55:00.155Z,0.25
2022-12-19T10:57:48.360Z,0.20
2022-12-19T11:00:38.838Z,0.16
2022-12-19T11:03:27.022Z,0.27
2022-12-19T11:06:42.843Z,0.33
2022-12-19T11:09:32.889Z,0.39
2022-12-19T11:16:38.311Z,0.44
2022-12-19T11:18:44.445Z,0.57
2022-12-19T11:20:25.166Z,0.42
2022-12-19T11:29:26.287Z,0.53
2022-12-19T11:30:44.327Z,0.62
2022-12-19T11:30:44.328Z,0.60
2022-12-19T11:34:39.182Z,0.55
2022-12-19T11:37:35.482Z,0.59
2022-12-19T11:40:32.371Z,0.48
2022-12-19T11:43:45.768Z,0.55
2022-12-19T11:46:44.794Z,0.66
2022-12-19T11:49:39.669Z,0.74
2022-12-19T11:55:54.066Z,0.72
2022-12-19T11:58:42.227Z,0.87
2022-12-19T12:01:44.230Z,0.87
2022-12-19T12:04:57.577Z,0.98
2022-12-19T12:08:55.242Z,0.97
2022-12-19T12:17:30.643Z,1.07
2022-12-19T12:23:42.670Z,1.08
2022-12-19T12:30:43.361Z,1.08
2022-12-19T12:31:55.331Z,1.04
2022-12-19T12:32:02.261Z,1.18
2022-12-19T12:32:04.345Z,1.08
2022-12-19T12:34:38.255Z,1.12
2022-12-19T12:41:20.516Z,1.21
2022-12-19T12:44:10.466Z,1.10
2022-12-19T12:47:03.595Z,1.03
2022-12-19T12:49:53.869Z,1.07
2022-12-19T12:52:44.432Z,1.08
2022-12-19T12:55:40.268Z,1.02
2022-12-19T12:59:07.968Z,1.15
2022-12-19T13:01:59.335Z,1.19
2022-12-19T13:04:58.747Z,1.14
2022-12-19T13:07:53.754Z,1.20
2022-12-19T13:10:56.198Z,1.26
2022-12-19T13:13:53.330Z,1.32
2022-12-19T13:16:53.989Z,1.38
2022-12-19T13:19:55.358Z,1.41
2022-12-19T13:22:45.448Z,1.43
2022-12-19T13:25:52.981Z,1.39
2022-12-19T13:28:44.339Z,1.44
2022-12-19T13:31:37.784Z,1.51
2022-12-19T13:34:34.640Z,1.49
2022-12-19T13:39:47.603Z,1.51
2022-12-19T13:41:22.605Z,1.52
2022-12-19T13:44:10.231Z,1.56
2022-12-19T13:46:58.538Z,1.56
2022-12-19T13:49:46.364Z,1.57
